Weddell Sea — WDG2226 — position and weather

sailwx.info

Track history (hours):
 
Tides and Currents Weather Stations Pressure Air Temp Water Temp Dewpoint Dewpoint Depression Visibility Wind Speed Wind Dir Waves Ship Positions

Weddell Sea

Owner: Kirby Offshore Marine, LLC, Staten Island, NY. More information available from US FCC via Universal Licensing System and Coast Guard Vessel Documentation Center.

Last reported at 2018-Aug-20 14:03 UTC. Time now 2018-Aug-21 03:55 UTC.
Position N 24°44' W 080°36'.

Length 34 m; draft 5 m.

Type: Tow > 200 m length. MMSI: 367175780.

Date/timePositionNaut miles runAvg speedWind from/ knotsBaromVisibWave heightAir tempDewpointWater temp
2018-Aug-20 14:03N 24°44' W 080°36'0 6.0
2018-Aug-20 14:00N 24°45' W 080°36'3 5.9
2018-Aug-20 13:30N 24°46' W 080°33'3 6.2
2018-Aug-20 13:02N 24°48' W 080°31'0 6.3
2018-Aug-20 13:00N 24°48' W 080°31'3 6.3
2018-Aug-20 12:30N 24°50' W 080°28'3 6.4
2018-Aug-20 12:03N 24°52' W 080°25'0 6.3
2018-Aug-20 12:00N 24°52' W 080°25'3 6.2
2018-Aug-20 11:28N 24°54' W 080°22'4 6.4
2018-Aug-20 10:54N 24°56' W 080°19'33 6.3
2018-Aug-20 05:39N 25°25' W 080°02'1 5.7
2018-Aug-20 05:29N 25°26' W 080°02'3 5.8
2018-Aug-20 05:02N 25°29' W 080°02'0 5.9
2018-Aug-20 05:00N 25°29' W 080°02'1 6.0
2018-Aug-20 04:47N 25°30' W 080°02'2 5.9
2018-Aug-20 04:30N 25°32' W 080°02'3 5.7
2018-Aug-20 04:00N 25°35' W 080°02'3 5.7
2018-Aug-20 03:30N 25°38' W 080°02'3 5.6
2018-Aug-20 03:00N 25°40' W 080°02'3 5.6
2018-Aug-20 02:30N 25°43' W 080°03'3 5.5
2018-Aug-20 02:00N 25°46' W 080°04'3 5.7
2018-Aug-20 01:30N 25°49' W 080°04'3 6.1
2018-Aug-20 01:00N 25°52' W 080°04'4 7.0
2018-Aug-20 00:28N 25°55' W 080°04'4 8.7
2018-Aug-20 00:00N 25°59' W 080°03'5 9.8
2018-Aug-19 23:30N 26°04' W 080°03'5 9.6
2018-Aug-19 23:00N 26°09' W 080°03'5 9.9
2018-Aug-19 22:30N 26°14' W 080°02'5 9.2
2018-Aug-19 22:00N 26°18' W 080°02'5 9.2
2018-Aug-19 21:30N 26°23' W 080°01'4 8.8
2018-Aug-19 21:00N 26°27' W 080°01'4 7.8
2018-Aug-19 20:30N 26°31' W 080°00'4 6.7
2018-Aug-19 19:58N 26°35' W 079°60'17 5.6
2018-Aug-19 16:58N 26°52' W 079°59'2 5.2
2018-Aug-19 16:30N 26°54' W 079°59'3 5.0
2018-Aug-19 16:00N 26°57' W 079°59'3 5.4
2018-Aug-19 15:30N 26°59' W 079°60'  
2018-Aug-16 22:45N 34°38' W 076°00'140 7.7
2018-Aug-16 04:27N 36°58' W 076°07'10 5.7
2018-Aug-16 02:39N 36°58' W 076°20'1 0.2
2018-Aug-15 17:39N 36°58' W 076°22'1 0.1
2018-Aug-15 07:15N 36°57' W 076°20'311.2
2018-Aug-15 07:00N 36°54' W 076°20'5 9.2
2018-Aug-15 06:30N 36°51' W 076°17'1 2.0
2018-Aug-15 06:00N 36°50' W 076°16'0 0.0
2018-Aug-15 05:30N 36°50' W 076°16'0 0.0
2018-Aug-15 05:00N 36°50' W 076°16'1 1.4
2018-Aug-15 04:30N 36°50' W 076°17'1 1.5
2018-Aug-15 04:00N 36°50' W 076°16'0 0.1
2018-Aug-15 03:30N 36°51' W 076°16'0 0.0
2018-Aug-15 02:59N 36°51' W 076°16'0 0.0
2018-Aug-15 01:55N 36°51' W 076°16'0 0.0
2018-Aug-15 00:34N 36°51' W 076°16'0 0.0
2018-Aug-15 00:28N 36°51' W 076°16'0 0.0
2018-Aug-14 23:49N 36°50' W 076°16'1 3.8
2018-Aug-14 23:30N 36°51' W 076°17'4 7.7
2018-Aug-14 23:00N 36°54' W 076°20'124 3.5
2018-Aug-13 11:46N 34°50' W 076°08'2 7.3
2018-Aug-13 11:27N 34°49' W 076°10'3 7.2
2018-Aug-13 11:00N 34°46' W 076°13'4 7.1
2018-Aug-13 10:30N 34°44' W 076°16'4 7.3
2018-Aug-13 10:00N 34°41' W 076°19'  
Track history (hours):
 
Tides and Currents Weather Stations Pressure Air Temp Water Temp Dewpoint Dewpoint Depression Visibility Wind Speed Wind Dir Waves Ship Positions

Weddell Sea

Owner: Kirby Offshore Marine, LLC, Staten Island, NY. More information available from US FCC via Universal Licensing System and Coast Guard Vessel Documentation Center.

Last reported at 2018-Aug-20 14:03 UTC. Time now 2018-Aug-21 03:55 UTC.
Position N 24°44' W 080°36'.

Length 34 m; draft 5 m.

Type: Tow > 200 m length. MMSI: 367175780.

Date/timePositionNaut miles runAvg speedWind from/ knotsBaromVisibWave heightAir tempDewpointWater temp
2018-Aug-20 14:03N 24°44' W 080°36'0 6.0
2018-Aug-20 14:00N 24°45' W 080°36'3 5.9
2018-Aug-20 13:30N 24°46' W 080°33'3 6.2
2018-Aug-20 13:02N 24°48' W 080°31'0 6.3
2018-Aug-20 13:00N 24°48' W 080°31'3 6.3
2018-Aug-20 12:30N 24°50' W 080°28'3 6.4
2018-Aug-20 12:03N 24°52' W 080°25'0 6.3
2018-Aug-20 12:00N 24°52' W 080°25'3 6.2
2018-Aug-20 11:28N 24°54' W 080°22'4 6.4
2018-Aug-20 10:54N 24°56' W 080°19'33 6.3
2018-Aug-20 05:39N 25°25' W 080°02'1 5.7
2018-Aug-20 05:29N 25°26' W 080°02'3 5.8
2018-Aug-20 05:02N 25°29' W 080°02'0 5.9
2018-Aug-20 05:00N 25°29' W 080°02'1 6.0
2018-Aug-20 04:47N 25°30' W 080°02'2 5.9
2018-Aug-20 04:30N 25°32' W 080°02'3 5.7
2018-Aug-20 04:00N 25°35' W 080°02'3 5.7
2018-Aug-20 03:30N 25°38' W 080°02'3 5.6
2018-Aug-20 03:00N 25°40' W 080°02'3 5.6
2018-Aug-20 02:30N 25°43' W 080°03'3 5.5
2018-Aug-20 02:00N 25°46' W 080°04'3 5.7
2018-Aug-20 01:30N 25°49' W 080°04'3 6.1
2018-Aug-20 01:00N 25°52' W 080°04'4 7.0
2018-Aug-20 00:28N 25°55' W 080°04'4 8.7
2018-Aug-20 00:00N 25°59' W 080°03'5 9.8
2018-Aug-19 23:30N 26°04' W 080°03'5 9.6
2018-Aug-19 23:00N 26°09' W 080°03'5 9.9
2018-Aug-19 22:30N 26°14' W 080°02'5 9.2
2018-Aug-19 22:00N 26°18' W 080°02'5 9.2
2018-Aug-19 21:30N 26°23' W 080°01'4 8.8
2018-Aug-19 21:00N 26°27' W 080°01'4 7.8
2018-Aug-19 20:30N 26°31' W 080°00'4 6.7
2018-Aug-19 19:58N 26°35' W 079°60'17 5.6
2018-Aug-19 16:58N 26°52' W 079°59'2 5.2
2018-Aug-19 16:30N 26°54' W 079°59'3 5.0
2018-Aug-19 16:00N 26°57' W 079°59'3 5.4
2018-Aug-19 15:30N 26°59' W 079°60'  
2018-Aug-16 22:45N 34°38' W 076°00'140 7.7
2018-Aug-16 04:27N 36°58' W 076°07'10 5.7
2018-Aug-16 02:39N 36°58' W 076°20'1 0.2
2018-Aug-15 17:39N 36°58' W 076°22'1 0.1
2018-Aug-15 07:15N 36°57' W 076°20'311.2
2018-Aug-15 07:00N 36°54' W 076°20'5 9.2
2018-Aug-15 06:30N 36°51' W 076°17'1 2.0
2018-Aug-15 06:00N 36°50' W 076°16'0 0.0
2018-Aug-15 05:30N 36°50' W 076°16'0 0.0
2018-Aug-15 05:00N 36°50' W 076°16'1 1.4
2018-Aug-15 04:30N 36°50' W 076°17'1 1.5
2018-Aug-15 04:00N 36°50' W 076°16'0 0.1
2018-Aug-15 03:30N 36°51' W 076°16'0 0.0
2018-Aug-15 02:59N 36°51' W 076°16'0 0.0
2018-Aug-15 01:55N 36°51' W 076°16'0 0.0
2018-Aug-15 00:34N 36°51' W 076°16'0 0.0
2018-Aug-15 00:28N 36°51' W 076°16'0 0.0
2018-Aug-14 23:49N 36°50' W 076°16'1 3.8
2018-Aug-14 23:30N 36°51' W 076°17'4 7.7
2018-Aug-14 23:00N 36°54' W 076°20'124 3.5
2018-Aug-13 11:46N 34°50' W 076°08'2 7.3
2018-Aug-13 11:27N 34°49' W 076°10'3 7.2
2018-Aug-13 11:00N 34°46' W 076°13'4 7.1
2018-Aug-13 10:30N 34°44' W 076°16'4 7.3
2018-Aug-13 10:00N 34°41' W 076°19'  

Dump ship's entire track history